createdAt,value
2018-01-15T00:00:52.951Z,1011.92
2018-01-15T00:01:50.900Z,1011.85
2018-01-15T00:02:51.015Z,1011.83
2018-01-15T00:03:50.896Z,1011.84
2018-01-15T00:04:51.027Z,1011.84
2018-01-15T00:05:50.902Z,1011.82
2018-01-15T00:06:51.042Z,1011.81
2018-01-15T00:07:50.904Z,1011.82
2018-01-15T00:11:43.128Z,1011.77
2018-01-15T00:12:41.448Z,1011.75
2018-01-15T00:13:41.396Z,1011.64
2018-01-15T00:14:43.514Z,1011.58
2018-01-15T00:15:41.401Z,1011.55
2018-01-15T00:16:41.481Z,1011.58
2018-01-15T00:17:41.403Z,1011.50
2018-01-15T00:18:41.491Z,1011.52
2018-01-15T00:19:41.413Z,1011.49
2018-01-15T00:20:41.508Z,1011.46
2018-01-15T00:21:41.423Z,1011.44
2018-01-15T00:22:42.544Z,1011.42
2018-01-15T00:23:41.418Z,1011.42
2018-01-15T00:24:41.539Z,1011.40
2018-01-15T00:25:41.428Z,1011.42
2018-01-15T00:26:41.549Z,1011.40
2018-01-15T00:27:41.431Z,1011.39
2018-01-15T00:28:41.560Z,1011.36
2018-01-15T00:29:41.433Z,1011.32
2018-01-15T00:30:42.495Z,1011.38
2018-01-15T00:31:41.441Z,1011.35
2018-01-15T00:32:41.586Z,1011.30
2018-01-15T00:33:41.455Z,1011.29
2018-01-15T00:34:41.483Z,1011.32
2018-01-15T00:35:41.452Z,1011.23
2018-01-15T00:36:46.210Z,1011.29
2018-01-15T00:37:41.455Z,1011.19
2018-01-15T00:38:41.513Z,1011.22
2018-01-15T00:39:41.457Z,1011.17
2018-01-15T00:40:41.527Z,1011.17
2018-01-15T00:41:41.458Z,1011.11
2018-01-15T00:42:41.539Z,1011.09
2018-01-15T00:43:41.465Z,1011.08
2018-01-15T00:44:41.549Z,1011.08
2018-01-15T00:45:41.470Z,1011.07
2018-01-15T00:46:43.513Z,1011.06
2018-01-15T00:47:41.476Z,1011.03
2018-01-15T00:48:41.574Z,1011.01
2018-01-15T00:49:41.481Z,1011.04
2018-01-15T00:50:41.597Z,1011.01
2018-01-15T00:51:41.488Z,1011.02
2018-01-15T00:52:41.603Z,1011.00
2018-01-15T00:53:41.507Z,1010.99
2018-01-15T00:54:41.627Z,1010.97
2018-01-15T00:55:41.494Z,1010.97
2018-01-15T00:56:41.632Z,1011.00
2018-01-15T00:57:41.502Z,1011.07
2018-01-15T00:58:41.646Z,1011.03
2018-01-15T00:59:41.506Z,1011.01
2018-01-15T01:00:41.561Z,1010.98
2018-01-15T01:01:41.507Z,1010.98
2018-01-15T01:02:41.578Z,1010.90
2018-01-15T01:03:41.511Z,1010.92
2018-01-15T01:04:42.616Z,1010.92
2018-01-15T01:05:41.517Z,1010.94
2018-01-15T01:06:41.601Z,1010.91
2018-01-15T01:07:41.521Z,1010.92
2018-01-15T01:08:46.222Z,1010.90
2018-01-15T01:09:41.523Z,1010.91
2018-01-15T01:10:41.630Z,1010.92
2018-01-15T01:11:41.531Z,1010.91
2018-01-15T01:12:41.642Z,1010.94
2018-01-15T01:13:41.535Z,1010.90
2018-01-15T01:14:42.676Z,1010.94
2018-01-15T01:15:41.540Z,1010.89
2018-01-15T01:16:43.615Z,1010.93
2018-01-15T01:17:41.547Z,1010.90
2018-01-15T01:18:42.702Z,1010.89
2018-01-15T01:19:41.550Z,1010.85
2018-01-15T01:20:43.638Z,1010.84
2018-01-15T01:21:41.557Z,1010.89
2018-01-15T01:22:42.627Z,1010.79
2018-01-15T01:23:41.564Z,1010.82
2018-01-15T01:24:41.617Z,1010.76
2018-01-15T01:25:41.566Z,1010.71
2018-01-15T01:26:41.634Z,1010.69
2018-01-15T01:27:41.564Z,1010.71
2018-01-15T01:28:42.668Z,1010.68
2018-01-15T01:29:41.573Z,1010.71
2018-01-15T01:30:41.656Z,1010.63
2018-01-15T01:31:41.572Z,1010.58
2018-01-15T01:32:42.696Z,1010.57
2018-01-15T01:33:41.590Z,1010.53
2018-01-15T01:34:41.688Z,1010.56
2018-01-15T01:35:41.586Z,1010.57
2018-01-15T01:36:42.721Z,1010.55
2018-01-15T01:37:41.587Z,1010.63
2018-01-15T01:38:46.215Z,1010.58
2018-01-15T01:39:41.594Z,1010.59
2018-01-15T01:40:41.787Z,1010.54
2018-01-15T01:41:41.598Z,1010.57
2018-01-15T01:42:41.743Z,1010.53
2018-01-15T01:43:41.602Z,1010.57
2018-01-15T01:44:42.678Z,1010.51
2018-01-15T01:45:41.607Z,1010.56
2018-01-15T01:46:41.767Z,1010.52
2018-01-15T01:47:41.611Z,1010.54
2018-01-15T01:48:43.730Z,1010.53
2018-01-15T01:49:41.618Z,1010.48
2018-01-15T01:50:42.716Z,1010.49
2018-01-15T01:51:41.634Z,1010.48
2018-01-15T01:52:42.730Z,1010.43
2018-01-15T01:53:41.623Z,1010.44
2018-01-15T01:54:41.719Z,1010.41
2018-01-15T01:55:41.630Z,1010.41
2018-01-15T01:56:41.731Z,1010.37
2018-01-15T01:57:41.636Z,1010.35
2018-01-15T01:58:41.743Z,1010.37
2018-01-15T01:59:41.643Z,1010.35
2018-01-15T02:09:24.035Z,1010.19
2018-01-15T02:10:22.431Z,1010.18
2018-01-15T02:11:22.543Z,1010.12
2018-01-15T02:12:22.436Z,1010.20
2018-01-15T02:13:24.497Z,1010.13
2018-01-15T02:14:22.443Z,1010.14
2018-01-15T02:15:22.565Z,1010.15
2018-01-15T02:16:22.448Z,1010.14
2018-01-15T02:17:23.500Z,1010.16
2018-01-15T02:18:22.447Z,1010.13
2018-01-15T02:19:24.539Z,1010.10
2018-01-15T02:20:22.455Z,1010.12
2018-01-15T02:21:22.506Z,1010.08
2018-01-15T02:22:22.460Z,1010.14
2018-01-15T02:23:23.542Z,1010.13
2018-01-15T02:24:22.465Z,1010.01
2018-01-15T02:25:23.556Z,1010.04
2018-01-15T02:26:22.473Z,1010.09
2018-01-15T02:27:24.591Z,1010.05
2018-01-15T02:28:22.472Z,1010.05
2018-01-15T02:29:23.577Z,1010.04
2018-01-15T02:30:22.474Z,1009.98
2018-01-15T02:31:22.570Z,1010.02
2018-01-15T02:32:22.487Z,1009.98
2018-01-15T02:33:22.578Z,1009.96
2018-01-15T02:34:22.484Z,1009.93
2018-01-15T02:35:22.593Z,1009.93
2018-01-15T02:36:22.488Z,1009.94
2018-01-15T02:37:22.610Z,1009.90
2018-01-15T02:38:22.495Z,1009.84
2018-01-15T02:39:22.621Z,1009.81
2018-01-15T02:40:22.498Z,1009.86
2018-01-15T02:41:22.635Z,1009.82
2018-01-15T02:42:22.505Z,1009.84
2018-01-15T02:43:27.051Z,1009.82
2018-01-15T02:44:22.508Z,1009.81
2018-01-15T02:45:22.570Z,1009.78
2018-01-15T02:46:22.523Z,1009.77
2018-01-15T02:47:22.572Z,1009.72
2018-01-15T02:48:22.514Z,1009.74
2018-01-15T02:49:22.583Z,1009.72
2018-01-15T02:50:22.525Z,1009.75
2018-01-15T02:51:22.622Z,1009.72
2018-01-15T02:52:22.521Z,1009.76
2018-01-15T02:53:22.613Z,1009.67
2018-01-15T02:54:22.527Z,1009.71
2018-01-15T02:55:22.633Z,1009.66
2018-01-15T02:56:22.537Z,1009.58
2018-01-15T02:57:23.667Z,1009.61
2018-01-15T02:58:22.536Z,1009.58
2018-01-15T02:59:22.657Z,1009.60
2018-01-15T03:00:22.540Z,1009.59
2018-01-15T03:01:22.672Z,1009.62
2018-01-15T03:02:22.543Z,1009.55
2018-01-15T03:03:22.685Z,1009.52
2018-01-15T03:04:22.546Z,1009.51
2018-01-15T03:05:22.696Z,1009.50
2018-01-15T03:06:22.555Z,1009.47
2018-01-15T03:07:22.609Z,1009.46
2018-01-15T03:08:22.556Z,1009.46
2018-01-15T03:09:22.624Z,1009.43
2018-01-15T03:10:22.605Z,1009.44
2018-01-15T03:11:22.634Z,1009.51
2018-01-15T03:12:22.563Z,1009.48
2018-01-15T03:13:22.649Z,1009.38
2018-01-15T03:14:22.569Z,1009.37
2018-01-15T03:15:22.663Z,1009.36
2018-01-15T03:16:22.574Z,1009.32
2018-01-15T03:17:22.675Z,1009.30
2018-01-15T03:18:22.577Z,1009.26
2018-01-15T03:19:22.687Z,1009.26
2018-01-15T03:20:22.579Z,1009.23
2018-01-15T03:21:22.701Z,1009.18
2018-01-15T03:22:22.584Z,1009.13
2018-01-15T03:23:22.714Z,1009.11
2018-01-15T03:24:22.589Z,1009.11
2018-01-15T03:25:23.650Z,1009.07
2018-01-15T03:26:22.592Z,1009.02
2018-01-15T03:27:22.741Z,1009.06
2018-01-15T03:28:22.599Z,1009.06
2018-01-15T03:29:24.703Z,1008.99
2018-01-15T03:30:22.599Z,1008.99
2018-01-15T03:31:22.668Z,1008.97
2018-01-15T03:32:22.607Z,1008.98
2018-01-15T03:33:23.680Z,1008.95
2018-01-15T03:34:22.609Z,1008.86
2018-01-15T03:35:22.673Z,1008.89
2018-01-15T03:36:22.613Z,1008.82
2018-01-15T03:37:22.680Z,1008.85
2018-01-15T03:38:22.617Z,1008.82
2018-01-15T03:39:23.720Z,1008.89
2018-01-15T03:40:22.620Z,1008.82
2018-01-15T03:41:22.713Z,1008.84
2018-01-15T03:42:22.628Z,1008.79
2018-01-15T03:43:22.720Z,1008.76
2018-01-15T03:44:22.630Z,1008.74
2018-01-15T03:45:24.689Z,1008.76
2018-01-15T03:46:22.631Z,1008.79
2018-01-15T03:47:22.751Z,1008.70
2018-01-15T03:48:22.636Z,1008.73
2018-01-15T03:49:35.571Z,1008.67
2018-01-15T03:50:22.645Z,1008.63
2018-01-15T03:51:22.682Z,1008.76
2018-01-15T03:52:22.642Z,1008.67
2018-01-15T03:53:22.697Z,1008.63
2018-01-15T03:54:22.651Z,1008.61
2018-01-15T03:55:22.702Z,1008.62
2018-01-15T03:56:22.648Z,1008.62
2018-01-15T03:57:33.576Z,1008.56
2018-01-15T03:58:22.656Z,1008.53
2018-01-15T03:59:24.784Z,1008.58
2018-01-15T04:00:22.667Z,1008.53
2018-01-15T04:01:23.769Z,1008.48
2018-01-15T04:02:22.662Z,1008.45
2018-01-15T04:03:23.782Z,1008.45
2018-01-15T04:04:22.672Z,1008.39
2018-01-15T04:05:23.794Z,1008.39
2018-01-15T04:06:22.674Z,1008.32
2018-01-15T04:07:24.728Z,1008.30
2018-01-15T04:08:22.679Z,1008.29
2018-01-15T04:09:23.819Z,1008.29
2018-01-15T04:10:22.682Z,1008.33
2018-01-15T04:11:22.810Z,1008.30
2018-01-15T04:12:22.685Z,1008.27
2018-01-15T04:13:23.742Z,1008.28
2018-01-15T04:14:22.687Z,1008.31
2018-01-15T04:15:23.757Z,1008.20
2018-01-15T04:16:22.694Z,1008.13
2018-01-15T04:17:22.761Z,1008.13
2018-01-15T04:18:22.697Z,1008.18
2018-01-15T04:19:22.759Z,1008.10
2018-01-15T04:20:22.700Z,1008.06
2018-01-15T04:21:29.638Z,1008.11
2018-01-15T04:22:22.703Z,1008.00
2018-01-15T04:23:24.838Z,1008.02
2018-01-15T04:24:22.721Z,1008.01
2018-01-15T04:25:22.803Z,1008.00
2018-01-15T04:26:22.712Z,1008.06
2018-01-15T04:27:27.629Z,1008.01
2018-01-15T04:28:22.720Z,1007.98
2018-01-15T04:29:22.829Z,1007.94
2018-01-15T04:30:22.723Z,1007.91
2018-01-15T04:31:22.841Z,1007.89
2018-01-15T04:32:22.721Z,1007.93
2018-01-15T04:33:34.633Z,1007.86
2018-01-15T04:34:22.728Z,1007.92
2018-01-15T04:35:24.821Z,1007.79
2018-01-15T04:36:22.734Z,1007.85
2018-01-15T04:37:24.833Z,1007.78
2018-01-15T04:38:22.737Z,1007.78
2018-01-15T04:39:23.819Z,1007.74
2018-01-15T04:40:22.739Z,1007.71
2018-01-15T04:41:22.809Z,1007.77
2018-01-15T04:42:22.745Z,1007.77
2018-01-15T04:43:22.824Z,1007.74
2018-01-15T04:44:22.751Z,1007.72
2018-01-15T04:45:24.886Z,1007.71
2018-01-15T04:46:22.766Z,1007.74
2018-01-15T04:47:27.664Z,1007.71
2018-01-15T04:48:22.755Z,1007.74
2018-01-15T04:49:23.888Z,1007.69
2018-01-15T04:50:22.762Z,1007.68
2018-01-15T04:51:22.876Z,1007.70
2018-01-15T04:52:22.762Z,1007.66
2018-01-15T04:53:23.916Z,1007.63
2018-01-15T04:54:22.763Z,1007.59
2018-01-15T04:55:24.849Z,1007.61
2018-01-15T04:56:22.771Z,1007.64
2018-01-15T04:57:22.912Z,1007.55
2018-01-15T04:58:22.773Z,1007.55
2018-01-15T04:59:22.921Z,1007.54
2018-01-15T05:00:22.779Z,1007.54
2018-01-15T05:01:23.860Z,1007.49
2018-01-15T05:02:22.783Z,1007.53
2018-01-15T05:03:22.850Z,1007.44
2018-01-15T05:04:22.786Z,1007.41
2018-01-15T05:05:24.910Z,1007.41
2018-01-15T05:06:22.794Z,1007.46
2018-01-15T05:07:27.585Z,1007.43
2018-01-15T05:08:22.791Z,1007.41
2018-01-15T05:09:28.622Z,1007.44
2018-01-15T05:10:22.852Z,1007.38
2018-01-15T05:11:22.901Z,1007.37
2018-01-15T05:12:22.800Z,1007.35
2018-01-15T05:13:23.937Z,1007.33
2018-01-15T05:14:22.802Z,1007.31
2018-01-15T05:15:22.929Z,1007.30
2018-01-15T05:16:22.806Z,1007.26
2018-01-15T05:17:22.939Z,1007.27
2018-01-15T05:18:22.817Z,1007.22
2018-01-15T05:19:22.941Z,1007.22
2018-01-15T05:20:22.813Z,1007.20
2018-01-15T05:21:23.871Z,1007.18
2018-01-15T05:22:22.820Z,1007.21
2018-01-15T05:23:23.895Z,1007.17
2018-01-15T05:24:22.824Z,1007.14
2018-01-15T05:25:23.906Z,1007.20
2018-01-15T05:26:22.825Z,1007.16
2018-01-15T05:27:22.978Z,1007.13
2018-01-15T05:28:22.834Z,1007.12
2018-01-15T05:29:25.035Z,1007.10
2018-01-15T05:30:22.832Z,1007.10
2018-01-15T05:31:22.993Z,1007.14
2018-01-15T05:32:22.843Z,1007.09
2018-01-15T05:33:25.056Z,1007.05
2018-01-15T05:34:22.840Z,1007.05
2018-01-15T05:35:23.020Z,1007.01
2018-01-15T05:36:22.847Z,1007.04
2018-01-15T05:37:24.059Z,1007.00
2018-01-15T05:38:22.850Z,1006.96
2018-01-15T05:39:24.074Z,1006.94
2018-01-15T05:40:22.855Z,1006.98
2018-01-15T05:41:23.062Z,1006.88
2018-01-15T05:42:22.870Z,1006.90
2018-01-15T05:43:22.974Z,1006.85
2018-01-15T05:44:22.856Z,1006.86
2018-01-15T05:45:22.987Z,1006.84
2018-01-15T05:46:22.862Z,1006.81
2018-01-15T05:47:22.901Z,1006.82
2018-01-15T05:48:22.867Z,1006.78
2018-01-15T05:49:23.941Z,1006.83
2018-01-15T05:50:22.880Z,1006.78
2018-01-15T05:51:22.922Z,1006.75
2018-01-15T05:52:22.875Z,1006.77
2018-01-15T05:53:27.648Z,1006.74
2018-01-15T05:54:22.884Z,1006.74
2018-01-15T05:55:28.583Z,1006.77
2018-01-15T05:56:22.882Z,1006.76
2018-01-15T05:57:24.915Z,1006.73
2018-01-15T05:58:22.885Z,1006.67
2018-01-15T05:59:22.982Z,1006.69
2018-01-15T06:00:22.888Z,1006.62
2018-01-15T06:01:28.628Z,1006.65
2018-01-15T06:02:22.901Z,1006.69
2018-01-15T06:03:37.653Z,1006.61
2018-01-15T06:04:22.902Z,1006.62
2018-01-15T06:05:35.617Z,1006.64
2018-01-15T06:06:22.905Z,1006.63
2018-01-15T06:07:27.640Z,1006.62
2018-01-15T06:08:22.906Z,1006.65
2018-01-15T06:09:23.968Z,1006.64
2018-01-15T06:10:22.906Z,1006.59
2018-01-15T06:11:23.982Z,1006.57
2018-01-15T06:12:22.925Z,1006.58
2018-01-15T06:13:25.024Z,1006.61
2018-01-15T06:14:22.914Z,1006.58
2018-01-15T06:15:28.618Z,1006.49
2018-01-15T06:16:22.922Z,1006.54
2018-01-15T06:17:24.026Z,1006.50
2018-01-15T06:18:22.923Z,1006.54
2018-01-15T06:19:24.039Z,1006.48
2018-01-15T06:20:22.968Z,1006.48
2018-01-15T06:21:23.043Z,1006.48
2018-01-15T06:22:22.935Z,1006.49
2018-01-15T06:23:24.082Z,1006.46
2018-01-15T06:24:22.935Z,1006.42
2018-01-15T06:25:23.070Z,1006.45
2018-01-15T06:26:22.940Z,1006.40
2018-01-15T06:27:24.000Z,1006.40
2018-01-15T06:28:22.945Z,1006.33
2018-01-15T06:29:24.017Z,1006.37
2018-01-15T06:30:23.007Z,1006.27
2018-01-15T06:31:23.007Z,1006.23
2018-01-15T06:32:22.975Z,1006.24
2018-01-15T06:33:23.022Z,1006.24
2018-01-15T06:34:22.950Z,1006.20
2018-01-15T06:35:24.081Z,1006.18
2018-01-15T06:36:22.957Z,1006.16
2018-01-15T06:37:24.070Z,1006.17
2018-01-15T06:38:22.962Z,1006.08
2018-01-15T06:39:23.059Z,1006.12
2018-01-15T06:40:22.966Z,1006.07
2018-01-15T06:41:24.096Z,1006.07
2018-01-15T06:42:22.974Z,1006.01
2018-01-15T06:43:23.087Z,1006.04
2018-01-15T06:44:22.969Z,1005.97
2018-01-15T06:45:23.099Z,1005.92
2018-01-15T06:46:22.976Z,1005.94
2018-01-15T06:47:43.986Z,1005.96
2018-01-15T06:48:22.992Z,1005.94
2018-01-15T06:55:43.719Z,1005.88
2018-01-15T06:56:43.678Z,1005.86
2018-01-15T06:57:43.780Z,1005.86
2018-01-15T06:58:43.751Z,1005.79
2018-01-15T06:59:43.651Z,1005.79
2018-01-15T07:00:43.649Z,1005.80
2018-01-15T07:01:43.776Z,1005.79
2018-01-15T07:02:43.652Z,1005.78
2018-01-15T07:03:43.790Z,1005.76
2018-01-15T07:04:43.658Z,1005.77
2018-01-15T07:05:43.804Z,1005.72
2018-01-15T07:06:43.659Z,1005.67
2018-01-15T07:07:43.714Z,1005.63
2018-01-15T07:08:43.663Z,1005.65
2018-01-15T07:09:43.666Z,1005.59
2018-01-15T07:15:16.082Z,1005.60
2018-01-15T07:16:14.385Z,1005.61
2018-01-15T07:17:14.292Z,1005.60
2018-01-15T07:18:14.292Z,1005.60
2018-01-15T07:19:14.244Z,1005.54
2018-01-15T07:20:14.247Z,1005.53
2018-01-15T07:21:14.252Z,1005.59
2018-01-15T07:22:14.249Z,1005.56
2018-01-15T07:23:14.256Z,1005.48
2018-01-15T07:24:14.253Z,1005.52
2018-01-15T07:25:14.346Z,1005.51
2018-01-15T07:26:14.247Z,1005.46
2018-01-15T07:27:14.358Z,1005.52
2018-01-15T07:28:14.260Z,1005.46
2018-01-15T07:29:14.369Z,1005.45
2018-01-15T07:30:14.261Z,1005.43
2018-01-15T07:31:14.282Z,1005.42
2018-01-15T07:32:14.264Z,1005.42
2018-01-15T07:33:14.290Z,1005.45
2018-01-15T07:34:14.267Z,1005.44
2018-01-15T07:35:14.274Z,1005.45
2018-01-15T07:36:14.279Z,1005.40
2018-01-15T07:37:14.276Z,1005.40
2018-01-15T07:38:14.278Z,1005.34
2018-01-15T07:39:14.277Z,1005.32
2018-01-15T07:40:14.354Z,1005.31
2018-01-15T07:41:14.283Z,1005.32
2018-01-15T07:42:15.381Z,1005.32
2018-01-15T07:43:14.284Z,1005.31
2018-01-15T07:44:14.297Z,1005.28
2018-01-15T07:45:14.291Z,1005.26
2018-01-15T07:46:14.302Z,1005.25
2018-01-15T07:47:14.297Z,1005.23
2018-01-15T07:48:14.309Z,1005.21
2018-01-15T07:49:14.407Z,1005.25
2018-01-15T07:50:14.297Z,1005.18
2018-01-15T07:51:14.300Z,1005.21
2018-01-15T07:52:14.322Z,1005.15
2018-01-15T07:53:14.302Z,1005.16
2018-01-15T07:54:14.348Z,1005.15
2018-01-15T07:55:14.307Z,1005.16
2018-01-15T07:56:14.349Z,1005.11
2018-01-15T07:57:14.312Z,1005.06
2018-01-15T07:58:14.311Z,1005.05
2018-01-15T07:59:14.408Z,1005.01
2018-01-15T08:00:14.315Z,1004.98
2018-01-15T08:01:14.321Z,1005.01
2018-01-15T08:02:14.324Z,1004.93
2018-01-15T08:03:14.323Z,1004.88
2018-01-15T08:04:14.323Z,1004.89
2018-01-15T08:05:14.325Z,1004.88
2018-01-15T08:06:16.403Z,1004.90
2018-01-15T08:07:14.323Z,1004.86
2018-01-15T08:08:14.331Z,1004.85
2018-01-15T08:09:15.394Z,1004.82
2018-01-15T08:10:14.374Z,1004.88
2018-01-15T08:11:14.390Z,1004.82
2018-01-15T08:12:14.337Z,1004.79
2018-01-15T08:13:14.342Z,1004.81
2018-01-15T08:14:14.345Z,1004.76
2018-01-15T08:15:14.356Z,1004.70
2018-01-15T08:16:14.355Z,1004.81
2018-01-15T08:17:14.442Z,1004.74
2018-01-15T08:18:14.347Z,1004.70
2018-01-15T08:19:14.358Z,1004.74
2018-01-15T08:20:14.355Z,1004.65
2018-01-15T08:21:14.463Z,1004.68
2018-01-15T08:22:14.361Z,1004.59
2018-01-15T08:23:15.397Z,1004.62
2018-01-15T08:24:14.362Z,1004.61
2018-01-15T08:25:15.411Z,1004.57
2018-01-15T08:26:14.365Z,1004.57
2018-01-15T08:27:14.404Z,1004.53
2018-01-15T08:28:14.364Z,1004.57
2018-01-15T08:29:16.465Z,1004.54
2018-01-15T08:30:14.369Z,1004.51
2018-01-15T08:31:14.423Z,1004.50
2018-01-15T08:32:14.405Z,1004.52
2018-01-15T08:33:20.210Z,1004.58
2018-01-15T08:34:14.377Z,1004.53
2018-01-15T08:35:16.497Z,1004.46
2018-01-15T08:36:14.390Z,1004.47
2018-01-15T08:37:14.460Z,1004.46
2018-01-15T08:38:14.397Z,1004.49
2018-01-15T08:39:14.476Z,1004.50
2018-01-15T08:40:14.400Z,1004.49
2018-01-15T08:41:14.397Z,1004.55
2018-01-15T08:42:14.395Z,1004.51
2018-01-15T08:43:16.446Z,1004.58
2018-01-15T08:44:14.405Z,1004.52
2018-01-15T08:45:14.517Z,1004.54
2018-01-15T08:46:14.405Z,1004.50
2018-01-15T08:47:14.428Z,1004.52
2018-01-15T08:48:14.406Z,1004.46
2018-01-15T08:49:20.178Z,1004.49
2018-01-15T08:50:14.412Z,1004.49
2018-01-15T08:51:14.452Z,1004.41
2018-01-15T08:52:14.419Z,1004.41
2018-01-15T08:53:15.493Z,1004.37
2018-01-15T08:54:14.431Z,1004.36
2018-01-15T08:55:25.135Z,1004.32
2018-01-15T08:56:14.425Z,1004.36
2018-01-15T08:57:14.498Z,1004.24
2018-01-15T08:58:14.455Z,1004.22
2018-01-15T08:59:15.541Z,1004.18
2018-01-15T09:00:14.436Z,1004.13
2018-01-15T09:01:19.139Z,1004.10
2018-01-15T09:02:14.429Z,1004.08
2018-01-15T09:03:16.486Z,1004.05
2018-01-15T09:04:14.436Z,1004.11
2018-01-15T09:05:15.477Z,1004.03
2018-01-15T09:06:14.448Z,1004.01
2018-01-15T09:07:14.434Z,1004.06
2018-01-15T09:08:14.470Z,1004.01
2018-01-15T09:09:14.441Z,1003.98
2018-01-15T09:10:14.483Z,1003.93
2018-01-15T09:11:14.441Z,1003.99
2018-01-15T09:12:15.521Z,1003.98
2018-01-15T09:13:14.454Z,1003.99
2018-01-15T09:14:14.511Z,1003.98
2018-01-15T09:15:14.454Z,1003.94
2018-01-15T09:16:14.473Z,1003.92
2018-01-15T09:17:16.547Z,1003.91
2018-01-15T09:18:14.473Z,1003.81
2018-01-15T09:19:16.574Z,1003.86
2018-01-15T09:20:14.468Z,1003.77
2018-01-15T09:21:29.164Z,1003.79
2018-01-15T09:22:14.468Z,1003.74
2018-01-15T09:23:14.535Z,1003.79
2018-01-15T09:24:14.474Z,1003.70
2018-01-15T09:25:20.185Z,1003.70
2018-01-15T09:26:14.479Z,1003.69
2018-01-15T09:27:15.588Z,1003.68
2018-01-15T09:28:14.479Z,1003.67
2018-01-15T09:29:15.499Z,1003.69
2018-01-15T09:30:14.481Z,1003.77
2018-01-15T09:31:19.101Z,1003.74
2018-01-15T09:32:14.494Z,1003.72
2018-01-15T09:33:16.555Z,1003.70
2018-01-15T09:34:14.495Z,1003.69
2018-01-15T09:35:14.525Z,1003.70
2018-01-15T09:36:14.496Z,1003.68
2018-01-15T09:37:15.542Z,1003.66
2018-01-15T09:38:14.526Z,1003.55
2018-01-15T09:39:16.583Z,1003.52
2018-01-15T09:40:14.506Z,1003.52
2018-01-15T09:41:27.139Z,1003.50
2018-01-15T09:42:14.502Z,1003.52
2018-01-15T09:43:14.590Z,1003.46
2018-01-15T09:44:14.514Z,1003.45
2018-01-15T09:45:25.116Z,1003.41
2018-01-15T09:46:14.513Z,1003.44
2018-01-15T09:47:20.151Z,1003.40
2018-01-15T09:48:14.518Z,1003.36
2018-01-15T09:49:50.167Z,1003.33
2018-01-15T09:50:14.519Z,1003.39
2018-01-15T09:51:14.523Z,1003.29
2018-01-15T09:52:14.540Z,1003.34
2018-01-15T09:53:14.526Z,1003.29
2018-01-15T09:54:14.568Z,1003.25
2018-01-15T09:55:14.526Z,1003.25
2018-01-15T09:56:15.591Z,1003.16
2018-01-15T09:57:14.531Z,1003.21
2018-01-15T09:58:14.534Z,1003.25
2018-01-15T09:59:15.615Z,1003.22
2018-01-15T10:00:14.538Z,1003.18
2018-01-15T10:01:14.605Z,1003.19
2018-01-15T10:02:14.550Z,1003.19
2018-01-15T10:03:14.617Z,1003.26
2018-01-15T10:04:14.547Z,1003.27
2018-01-15T10:05:19.155Z,1003.20
2018-01-15T10:06:14.550Z,1003.21
2018-01-15T10:07:14.650Z,1003.23
2018-01-15T10:08:14.565Z,1003.16
2018-01-15T10:09:14.658Z,1003.24
2018-01-15T10:10:14.560Z,1003.24
2018-01-15T10:11:14.668Z,1003.16
2018-01-15T10:12:14.559Z,1003.13
2018-01-15T10:13:20.114Z,1003.15
2018-01-15T10:14:14.573Z,1003.14
2018-01-15T10:15:15.621Z,1003.06
2018-01-15T10:16:14.566Z,1003.08
2018-01-15T10:17:14.595Z,1002.98
2018-01-15T10:18:14.618Z,1003.04
2018-01-15T10:19:14.578Z,1002.90
2018-01-15T10:20:19.136Z,1002.93
2018-01-15T10:21:14.586Z,1002.88
2018-01-15T10:22:16.690Z,1002.83
2018-01-15T10:23:14.584Z,1002.87
2018-01-15T10:24:14.665Z,1002.83
2018-01-15T10:25:14.593Z,1002.83
2018-01-15T10:26:14.672Z,1002.83
2018-01-15T10:27:14.596Z,1002.82
2018-01-15T10:28:14.685Z,1002.75
2018-01-15T10:29:14.596Z,1002.79
2018-01-15T10:30:14.693Z,1002.68
2018-01-15T10:31:14.602Z,1002.72
2018-01-15T10:32:14.709Z,1002.63
2018-01-15T10:33:14.606Z,1002.66
2018-01-15T10:34:14.619Z,1002.59
2018-01-15T10:35:14.608Z,1002.65
2018-01-15T10:36:19.653Z,1002.55
2018-01-15T10:37:14.614Z,1002.59
2018-01-15T10:38:16.707Z,1002.52
2018-01-15T10:39:14.616Z,1002.53
2018-01-15T10:40:14.665Z,1002.51
2018-01-15T10:41:14.628Z,1002.47
2018-01-15T10:42:16.727Z,1002.46
2018-01-15T10:43:14.634Z,1002.38
2018-01-15T10:44:16.744Z,1002.38
2018-01-15T10:45:14.627Z,1002.35
2018-01-15T10:46:14.637Z,1002.36
2018-01-15T10:47:16.656Z,1002.25
2018-01-15T10:48:14.635Z,1002.33
2018-01-15T10:49:14.731Z,1002.14
2018-01-15T10:50:14.648Z,1002.11
2018-01-15T10:51:15.662Z,1002.14
2018-01-15T10:52:14.657Z,1002.13
2018-01-15T10:53:16.698Z,1002.08
2018-01-15T10:54:14.649Z,1002.06
2018-01-15T10:55:14.681Z,1002.04
2018-01-15T10:56:14.671Z,1001.97
2018-01-15T10:57:14.655Z,1001.98
2018-01-15T10:58:14.688Z,1001.94
2018-01-15T10:59:14.660Z,1001.93
2018-01-15T11:00:14.701Z,1001.86
2018-01-15T11:01:14.663Z,1001.84
2018-01-15T11:02:14.721Z,1001.82
2018-01-15T11:03:14.665Z,1001.75
2018-01-15T11:04:15.590Z,1001.74
2018-01-15T11:05:14.667Z,1001.66
2018-01-15T11:06:16.792Z,1001.57
2018-01-15T11:07:14.673Z,1001.63
2018-01-15T11:08:15.777Z,1001.60
2018-01-15T11:09:14.686Z,1001.57
2018-01-15T11:10:16.714Z,1001.53
2018-01-15T11:11:14.682Z,1001.54
2018-01-15T11:12:15.805Z,1001.48
2018-01-15T11:13:14.690Z,1001.43
2018-01-15T11:14:14.795Z,1001.46
2018-01-15T11:15:14.697Z,1001.42
2018-01-15T11:16:15.732Z,1001.40
2018-01-15T11:17:14.699Z,1001.32
2018-01-15T11:18:14.722Z,1001.30
2018-01-15T11:19:14.724Z,1001.16
2018-01-15T11:20:16.780Z,1001.22
2018-01-15T11:21:14.726Z,1001.23
2018-01-15T11:22:16.796Z,1001.15
2018-01-15T11:23:14.706Z,1001.12
2018-01-15T11:24:14.709Z,1001.16
2018-01-15T11:25:14.766Z,1001.12
2018-01-15T11:26:14.723Z,1001.06
2018-01-15T11:27:15.808Z,1001.03
2018-01-15T11:28:14.722Z,1000.99
2018-01-15T11:29:15.815Z,1000.88
2018-01-15T11:30:14.720Z,1000.90
2018-01-15T11:31:15.833Z,1000.87
2018-01-15T11:32:14.726Z,1000.81
2018-01-15T11:33:14.828Z,1000.76
2018-01-15T11:34:14.732Z,1000.78
2018-01-15T11:35:14.831Z,1000.74
2018-01-15T11:36:14.734Z,1000.70
2018-01-15T11:37:14.845Z,1000.66
2018-01-15T11:38:14.745Z,1000.63
2018-01-15T11:39:14.752Z,1000.55
2018-01-15T11:40:14.745Z,1000.55
2018-01-15T11:41:14.775Z,1000.50
2018-01-15T11:42:14.751Z,1000.47
2018-01-15T11:43:14.786Z,1000.43
2018-01-15T11:44:14.801Z,1000.40
2018-01-15T11:45:14.758Z,1000.37
2018-01-15T11:46:14.754Z,1000.39
2018-01-15T11:47:14.812Z,1000.34
2018-01-15T11:48:14.807Z,1000.29
2018-01-15T11:49:14.763Z,1000.29
2018-01-15T11:50:14.766Z,1000.22
2018-01-15T11:51:14.765Z,1000.25
2018-01-15T11:52:20.685Z,1000.11
2018-01-15T11:53:14.777Z,1000.17
2018-01-15T11:54:14.856Z,1000.14
2018-01-15T11:55:14.775Z,1000.07
2018-01-15T11:56:14.881Z,1000.04
2018-01-15T11:57:14.784Z,999.97
2018-01-15T11:58:14.786Z,999.98
2018-01-15T11:59:15.816Z,1000.02
2018-01-15T12:00:14.794Z,999.90
2018-01-15T12:01:16.852Z,999.92
2018-01-15T12:02:14.791Z,999.85
2018-01-15T12:03:14.815Z,999.78
2018-01-15T12:04:14.800Z,999.80
2018-01-15T12:05:14.831Z,999.73
2018-01-15T12:06:14.804Z,999.78
2018-01-15T12:07:14.845Z,999.69
2018-01-15T12:08:14.811Z,999.70
2018-01-15T12:09:14.860Z,999.60
2018-01-15T12:10:14.809Z,999.61
2018-01-15T12:11:16.922Z,999.59
2018-01-15T12:12:14.814Z,999.53
2018-01-15T12:13:14.885Z,999.49
2018-01-15T12:14:14.815Z,999.43
2018-01-15T12:15:14.824Z,999.46
2018-01-15T12:16:14.829Z,999.42
2018-01-15T12:17:14.949Z,999.35
2018-01-15T12:18:14.851Z,999.26
2018-01-15T12:19:14.927Z,999.31
2018-01-15T12:20:14.836Z,999.17
2018-01-15T12:21:14.914Z,999.17
2018-01-15T12:22:14.843Z,999.12
2018-01-15T12:23:19.638Z,999.02
2018-01-15T12:24:14.846Z,999.03
2018-01-15T12:25:14.846Z,999.09
2018-01-15T12:26:15.870Z,998.94
2018-01-15T12:27:14.865Z,998.95
2018-01-15T12:28:14.859Z,998.91
2018-01-15T12:29:20.700Z,998.94